sensor_id;sensor_type;location;lat;lon;timestamp;pressure;altitude;pressure_sealevel;temperature;humidity
80988;BME280;70452;39.386;-3.210;2023-07-31T00:02:14;94362.53;;;28.59;27.45
80988;BME280;70452;39.386;-3.210;2023-07-31T00:04:49;94366.09;;;28.53;27.57
80988;BME280;70452;39.386;-3.210;2023-07-31T00:07:18;94371.28;;;28.51;27.42
80988;BME280;70452;39.386;-3.210;2023-07-31T00:09:50;94367.66;;;28.54;27.65
80988;BME280;70452;39.386;-3.210;2023-07-31T00:12:37;94378.53;;;28.55;27.49
80988;BME280;70452;39.386;-3.210;2023-07-31T00:15:24;94378.13;;;28.57;27.07
80988;BME280;70452;39.386;-3.210;2023-07-31T00:18:01;94381.63;;;28.39;27.04
80988;BME280;70452;39.386;-3.210;2023-07-31T00:23:44;94385.13;;;28.15;27.22
80988;BME280;70452;39.386;-3.210;2023-07-31T00:26:38;94385.88;;;28.08;27.68
80988;BME280;70452;39.386;-3.210;2023-07-31T00:29:19;94386.25;;;28.03;27.63
80988;BME280;70452;39.386;-3.210;2023-07-31T00:32:02;94385.69;;;27.83;26.77
80988;BME280;70452;39.386;-3.210;2023-07-31T00:34:59;94389.16;;;27.65;27.56
80988;BME280;70452;39.386;-3.210;2023-07-31T00:37:40;94386.41;;;27.69;27.49
80988;BME280;70452;39.386;-3.210;2023-07-31T00:40:36;94383.50;;;27.55;26.50
80988;BME280;70452;39.386;-3.210;2023-07-31T00:43:22;94383.13;;;27.56;26.80
80988;BME280;70452;39.386;-3.210;2023-07-31T00:45:54;94382.97;;;27.42;26.02
80988;BME280;70452;39.386;-3.210;2023-07-31T00:48:32;94379.44;;;27.48;26.66
80988;BME280;70452;39.386;-3.210;2023-07-31T00:51:04;94377.88;;;27.51;26.16
80988;BME280;70452;39.386;-3.210;2023-07-31T00:53:48;94373.66;;;27.27;25.89
80988;BME280;70452;39.386;-3.210;2023-07-31T00:56:48;94370.50;;;27.28;26.12
80988;BME280;70452;39.386;-3.210;2023-07-31T00:59:22;94367.56;;;27.18;25.66
80988;BME280;70452;39.386;-3.210;2023-07-31T01:02:08;94371.94;;;27.15;25.89
80988;BME280;70452;39.386;-3.210;2023-07-31T01:04:47;94362.28;;;27.09;25.90
80988;BME280;70452;39.386;-3.210;2023-07-31T01:10:23;94362.16;;;26.94;26.09
80988;BME280;70452;39.386;-3.210;2023-07-31T01:12:57;94360.56;;;26.93;25.58
80988;BME280;70452;39.386;-3.210;2023-07-31T01:15:31;94355.47;;;27.03;26.28
80988;BME280;70452;39.386;-3.210;2023-07-31T01:18:16;94354.66;;;27.02;25.40
80988;BME280;70452;39.386;-3.210;2023-07-31T01:30:10;94350.59;;;26.96;26.04
80988;BME280;70452;39.386;-3.210;2023-07-31T01:32:43;94356.16;;;26.92;25.87
80988;BME280;70452;39.386;-3.210;2023-07-31T01:35:28;94355.75;;;26.56;26.41
80988;BME280;70452;39.386;-3.210;2023-07-31T01:38:32;94348.31;;;26.68;26.37
80988;BME280;70452;39.386;-3.210;2023-07-31T01:41:23;94347.97;;;26.73;26.09
80988;BME280;70452;39.386;-3.210;2023-07-31T01:44:14;94341.59;;;26.72;26.21
80988;BME280;70452;39.386;-3.210;2023-07-31T01:47:08;94357.22;;;26.77;26.15
80988;BME280;70452;39.386;-3.210;2023-07-31T01:49:50;94360.00;;;26.77;26.54
80988;BME280;70452;39.386;-3.210;2023-07-31T01:52:31;94356.56;;;26.94;26.79
80988;BME280;70452;39.386;-3.210;2023-07-31T01:55:14;94358.81;;;26.78;26.14
80988;BME280;70452;39.386;-3.210;2023-07-31T01:58:13;94361.94;;;26.39;26.83
80988;BME280;70452;39.386;-3.210;2023-07-31T02:00:45;94353.28;;;26.17;27.07
80988;BME280;70452;39.386;-3.210;2023-07-31T02:03:31;94355.09;;;25.76;27.49
80988;BME280;70452;39.386;-3.210;2023-07-31T02:06:12;94350.78;;;26.09;27.67
80988;BME280;70452;39.386;-3.210;2023-07-31T02:08:54;94360.28;;;26.04;27.92
80988;BME280;70452;39.386;-3.210;2023-07-31T02:11:25;94355.19;;;26.10;27.88
80988;BME280;70452;39.386;-3.210;2023-07-31T02:14:03;94359.69;;;26.18;27.71
80988;BME280;70452;39.386;-3.210;2023-07-31T02:16:40;94362.69;;;26.36;27.62
80988;BME280;70452;39.386;-3.210;2023-07-31T02:19:23;94357.91;;;26.36;27.59
80988;BME280;70452;39.386;-3.210;2023-07-31T02:21:58;94365.97;;;26.11;27.21
80988;BME280;70452;39.386;-3.210;2023-07-31T02:24:48;94364.28;;;25.76;27.83
80988;BME280;70452;39.386;-3.210;2023-07-31T02:27:22;94368.50;;;25.93;27.95
80988;BME280;70452;39.386;-3.210;2023-07-31T02:29:56;94362.66;;;26.02;27.94
80988;BME280;70452;39.386;-3.210;2023-07-31T02:32:36;94362.81;;;25.86;28.14
80988;BME280;70452;39.386;-3.210;2023-07-31T02:35:14;94369.94;;;25.83;28.16
80988;BME280;70452;39.386;-3.210;2023-07-31T02:37:56;94358.38;;;25.81;28.12
80988;BME280;70452;39.386;-3.210;2023-07-31T02:40:29;94358.59;;;25.69;28.41
80988;BME280;70452;39.386;-3.210;2023-07-31T02:43:05;94348.66;;;25.72;28.60
80988;BME280;70452;39.386;-3.210;2023-07-31T02:45:57;94349.94;;;25.78;28.13
80988;BME280;70452;39.386;-3.210;2023-07-31T02:48:29;94343.06;;;25.72;28.60
80988;BME280;70452;39.386;-3.210;2023-07-31T02:51:01;94346.03;;;25.56;28.56
80988;BME280;70452;39.386;-3.210;2023-07-31T02:53:45;94358.91;;;25.64;28.60
80988;BME280;70452;39.386;-3.210;2023-07-31T02:56:23;94361.75;;;25.68;28.78
80988;BME280;70452;39.386;-3.210;2023-07-31T02:59:19;94360.69;;;25.49;28.67
80988;BME280;70452;39.386;-3.210;2023-07-31T03:01:53;94353.22;;;25.30;29.46
80988;BME280;70452;39.386;-3.210;2023-07-31T03:04:39;94357.34;;;24.94;29.72
80988;BME280;70452;39.386;-3.210;2023-07-31T03:07:16;94364.19;;;24.96;30.15
80988;BME280;70452;39.386;-3.210;2023-07-31T03:09:50;94360.25;;;24.78;31.09
80988;BME280;70452;39.386;-3.210;2023-07-31T03:12:22;94361.41;;;24.96;31.58
80988;BME280;70452;39.386;-3.210;2023-07-31T03:14:51;94374.06;;;24.70;32.83
80988;BME280;70452;39.386;-3.210;2023-07-31T03:17:29;94367.19;;;24.64;34.19
80988;BME280;70452;39.386;-3.210;2023-07-31T03:20:28;94358.97;;;24.32;35.52
80988;BME280;70452;39.386;-3.210;2023-07-31T03:23:08;94360.59;;;24.33;37.01
80988;BME280;70452;39.386;-3.210;2023-07-31T03:25:54;94353.75;;;24.50;36.36
80988;BME280;70452;39.386;-3.210;2023-07-31T03:28:32;94358.75;;;24.41;37.39
80988;BME280;70452;39.386;-3.210;2023-07-31T03:31:10;94354.94;;;24.30;37.50
80988;BME280;70452;39.386;-3.210;2023-07-31T03:33:49;94359.91;;;24.60;36.48
80988;BME280;70452;39.386;-3.210;2023-07-31T03:36:35;94351.84;;;24.74;37.08
80988;BME280;70452;39.386;-3.210;2023-07-31T03:39:07;94353.66;;;24.86;37.02
80988;BME280;70452;39.386;-3.210;2023-07-31T03:41:39;94363.28;;;24.92;37.50
80988;BME280;70452;39.386;-3.210;2023-07-31T03:44:45;94365.41;;;24.99;36.80
80988;BME280;70452;39.386;-3.210;2023-07-31T03:47:37;94356.38;;;25.05;36.84
80988;BME280;70452;39.386;-3.210;2023-07-31T03:50:35;94361.31;;;25.16;36.62
80988;BME280;70452;39.386;-3.210;2023-07-31T03:56:08;94362.22;;;24.77;36.88
80988;BME280;70452;39.386;-3.210;2023-07-31T03:58:55;94366.41;;;24.48;38.84
80988;BME280;70452;39.386;-3.210;2023-07-31T04:01:44;94360.47;;;24.49;40.89
80988;BME280;70452;39.386;-3.210;2023-07-31T04:04:31;94370.69;;;24.61;41.03
80988;BME280;70452;39.386;-3.210;2023-07-31T04:07:02;94364.03;;;24.46;42.01
80988;BME280;70452;39.386;-3.210;2023-07-31T04:09:45;94366.97;;;23.79;44.92
80988;BME280;70452;39.386;-3.210;2023-07-31T04:15:32;94363.97;;;24.04;42.85
80988;BME280;70452;39.386;-3.210;2023-07-31T04:18:26;94377.59;;;24.09;42.89
80988;BME280;70452;39.386;-3.210;2023-07-31T04:21:12;94370.03;;;24.09;41.53
80988;BME280;70452;39.386;-3.210;2023-07-31T04:23:52;94367.81;;;24.19;40.92
80988;BME280;70452;39.386;-3.210;2023-07-31T04:26:27;94367.59;;;24.27;40.87
80988;BME280;70452;39.386;-3.210;2023-07-31T04:28:59;94367.09;;;24.22;40.56
80988;BME280;70452;39.386;-3.210;2023-07-31T04:31:38;94368.28;;;24.21;40.00
80988;BME280;70452;39.386;-3.210;2023-07-31T04:34:34;94363.97;;;24.23;40.13
80988;BME280;70452;39.386;-3.210;2023-07-31T04:37:06;94364.38;;;24.25;40.13
80988;BME280;70452;39.386;-3.210;2023-07-31T04:40:03;94361.81;;;24.17;40.42
80988;BME280;70452;39.386;-3.210;2023-07-31T04:42:42;94362.47;;;24.10;40.72
80988;BME280;70452;39.386;-3.210;2023-07-31T04:45:27;94361.63;;;24.06;40.34
80988;BME280;70452;39.386;-3.210;2023-07-31T04:48:03;94361.75;;;24.13;40.52
80988;BME280;70452;39.386;-3.210;2023-07-31T04:50:31;94356.25;;;24.17;40.19
80988;BME280;70452;39.386;-3.210;2023-07-31T04:53:16;94355.81;;;24.14;40.15
80988;BME280;70452;39.386;-3.210;2023-07-31T04:55:54;94366.09;;;24.10;39.78
80988;BME280;70452;39.386;-3.210;2023-07-31T04:58:29;94361.41;;;24.14;39.66
80988;BME280;70452;39.386;-3.210;2023-07-31T05:01:06;94362.72;;;24.21;39.62
80988;BME280;70452;39.386;-3.210;2023-07-31T05:03:40;94364.25;;;24.18;39.75
80988;BME280;70452;39.386;-3.210;2023-07-31T05:06:17;94366.47;;;24.09;40.08
80988;BME280;70452;39.386;-3.210;2023-07-31T05:08:50;94365.34;;;23.94;40.40
80988;BME280;70452;39.386;-3.210;2023-07-31T05:11:27;94369.84;;;23.83;40.30
80988;BME280;70452;39.386;-3.210;2023-07-31T05:13:56;94359.91;;;23.82;40.08
80988;BME280;70452;39.386;-3.210;2023-07-31T05:16:45;94366.41;;;23.89;40.27
80988;BME280;70452;39.386;-3.210;2023-07-31T05:19:19;94366.72;;;23.84;40.68
80988;BME280;70452;39.386;-3.210;2023-07-31T05:21:56;94369.38;;;23.96;39.58
80988;BME280;70452;39.386;-3.210;2023-07-31T05:24:30;94365.88;;;24.19;38.63
80988;BME280;70452;39.386;-3.210;2023-07-31T05:27:32;94374.06;;;24.70;37.07
80988;BME280;70452;39.386;-3.210;2023-07-31T05:30:16;94378.03;;;24.93;36.68
80988;BME280;70452;39.386;-3.210;2023-07-31T05:33:01;94370.50;;;25.39;35.76
80988;BME280;70452;39.386;-3.210;2023-07-31T05:35:36;94367.66;;;25.89;34.15
80988;BME280;70452;39.386;-3.210;2023-07-31T05:38:13;94373.53;;;26.11;33.91
80988;BME280;70452;39.386;-3.210;2023-07-31T05:41:04;94367.41;;;26.62;33.13
80988;BME280;70452;39.386;-3.210;2023-07-31T05:43:37;94374.38;;;27.17;32.07
80988;BME280;70452;39.386;-3.210;2023-07-31T05:46:17;94371.38;;;27.40;31.75
80988;BME280;70452;39.386;-3.210;2023-07-31T05:48:57;94371.72;;;27.31;31.73
80988;BME280;70452;39.386;-3.210;2023-07-31T05:51:29;94370.00;;;27.71;30.86
80988;BME280;70452;39.386;-3.210;2023-07-31T05:54:18;94377.47;;;28.04;30.35
80988;BME280;70452;39.386;-3.210;2023-07-31T05:56:52;94384.66;;;28.05;29.66
80988;BME280;70452;39.386;-3.210;2023-07-31T05:59:31;94384.19;;;28.63;28.35
80988;BME280;70452;39.386;-3.210;2023-07-31T06:02:05;94392.22;;;28.75;28.25
80988;BME280;70452;39.386;-3.210;2023-07-31T06:04:38;94384.97;;;28.59;28.51
80988;BME280;70452;39.386;-3.210;2023-07-31T06:07:30;94391.41;;;28.74;28.09
80988;BME280;70452;39.386;-3.210;2023-07-31T06:10:13;94389.47;;;29.04;27.61
80988;BME280;70452;39.386;-3.210;2023-07-31T06:12:58;94396.78;;;29.44;26.78
80988;BME280;70452;39.386;-3.210;2023-07-31T06:15:38;94400.41;;;29.77;25.83
80988;BME280;70452;39.386;-3.210;2023-07-31T06:18:18;94404.81;;;29.96;25.38
80988;BME280;70452;39.386;-3.210;2023-07-31T06:20:51;94412.03;;;30.01;25.08
80988;BME280;70452;39.386;-3.210;2023-07-31T06:23:30;94410.41;;;30.10;24.93
80988;BME280;70452;39.386;-3.210;2023-07-31T06:25:59;94416.41;;;30.23;24.39
80988;BME280;70452;39.386;-3.210;2023-07-31T06:28:37;94409.50;;;30.53;23.91
80988;BME280;70452;39.386;-3.210;2023-07-31T06:31:29;94408.19;;;30.87;23.51
80988;BME280;70452;39.386;-3.210;2023-07-31T06:36:59;94411.44;;;30.78;23.24
80988;BME280;70452;39.386;-3.210;2023-07-31T06:39:40;94401.97;;;31.24;22.78
80988;BME280;70452;39.386;-3.210;2023-07-31T06:42:18;94404.03;;;31.13;22.76
80988;BME280;70452;39.386;-3.210;2023-07-31T06:45:00;94403.47;;;31.39;22.54
80988;BME280;70452;39.386;-3.210;2023-07-31T06:47:34;94399.09;;;31.31;22.51
80988;BME280;70452;39.386;-3.210;2023-07-31T06:50:30;94403.06;;;31.41;22.40
80988;BME280;70452;39.386;-3.210;2023-07-31T06:53:05;94410.66;;;31.51;22.36
80988;BME280;70452;39.386;-3.210;2023-07-31T06:55:37;94412.19;;;31.59;22.15
80988;BME280;70452;39.386;-3.210;2023-07-31T06:58:12;94417.00;;;31.63;22.04
80988;BME280;70452;39.386;-3.210;2023-07-31T07:00:44;94416.53;;;31.71;21.84
80988;BME280;70452;39.386;-3.210;2023-07-31T07:03:26;94421.72;;;31.76;21.88
80988;BME280;70452;39.386;-3.210;2023-07-31T07:08:51;94415.69;;;31.78;21.77
80988;BME280;70452;39.386;-3.210;2023-07-31T07:11:35;94420.50;;;31.77;21.84
80988;BME280;70452;39.386;-3.210;2023-07-31T07:14:06;94425.13;;;32.06;21.56
80988;BME280;70452;39.386;-3.210;2023-07-31T07:16:40;94424.56;;;32.22;21.26
80988;BME280;70452;39.386;-3.210;2023-07-31T07:19:18;94425.94;;;31.99;21.97
80988;BME280;70452;39.386;-3.210;2023-07-31T07:22:07;94428.72;;;32.06;22.14
80988;BME280;70452;39.386;-3.210;2023-07-31T07:24:41;94424.81;;;32.38;21.06
80988;BME280;70452;39.386;-3.210;2023-07-31T07:27:28;94430.09;;;32.32;21.22
80988;BME280;70452;39.386;-3.210;2023-07-31T07:33:14;94437.53;;;32.53;21.45
80988;BME280;70452;39.386;-3.210;2023-07-31T07:35:50;94436.38;;;32.47;21.44
80988;BME280;70452;39.386;-3.210;2023-07-31T07:38:22;94435.34;;;32.72;20.98
80988;BME280;70452;39.386;-3.210;2023-07-31T07:40:51;94429.19;;;32.81;21.07
80988;BME280;70452;39.386;-3.210;2023-07-31T07:43:34;94436.84;;;32.80;21.31
80988;BME280;70452;39.386;-3.210;2023-07-31T07:46:08;94432.75;;;33.19;20.85
80988;BME280;70452;39.386;-3.210;2023-07-31T07:48:43;94434.63;;;33.30;20.65
80988;BME280;70452;39.386;-3.210;2023-07-31T07:51:26;94432.25;;;33.24;20.95
80988;BME280;70452;39.386;-3.210;2023-07-31T07:54:12;94434.03;;;33.42;20.97
80988;BME280;70452;39.386;-3.210;2023-07-31T07:56:49;94435.38;;;33.34;20.83
80988;BME280;70452;39.386;-3.210;2023-07-31T07:59:43;94430.75;;;33.74;20.48
80988;BME280;70452;39.386;-3.210;2023-07-31T08:02:21;94439.69;;;33.69;20.47
80988;BME280;70452;39.386;-3.210;2023-07-31T08:05:01;94426.81;;;33.92;20.50
80988;BME280;70452;39.386;-3.210;2023-07-31T08:07:36;94439.19;;;34.01;20.44
80988;BME280;70452;39.386;-3.210;2023-07-31T08:10:32;94435.69;;;34.17;20.06
80988;BME280;70452;39.386;-3.210;2023-07-31T08:13:17;94428.63;;;33.82;20.76
80988;BME280;70452;39.386;-3.210;2023-07-31T08:15:48;94431.69;;;33.91;20.26
80988;BME280;70452;39.386;-3.210;2023-07-31T08:18:44;94436.66;;;34.07;20.33
80988;BME280;70452;39.386;-3.210;2023-07-31T08:21:21;94433.16;;;34.47;19.80
80988;BME280;70452;39.386;-3.210;2023-07-31T08:23:56;94434.41;;;34.46;20.16
80988;BME280;70452;39.386;-3.210;2023-07-31T08:26:35;94432.44;;;34.43;20.11
80988;BME280;70452;39.386;-3.210;2023-07-31T08:29:12;94428.50;;;35.00;19.22
80988;BME280;70452;39.386;-3.210;2023-07-31T08:31:49;94436.19;;;35.20;19.17
80988;BME280;70452;39.386;-3.210;2023-07-31T08:34:21;94427.69;;;34.80;19.55
80988;BME280;70452;39.386;-3.210;2023-07-31T08:37:02;94431.19;;;35.07;19.35
80988;BME280;70452;39.386;-3.210;2023-07-31T08:39:45;94432.28;;;35.50;19.00
80988;BME280;70452;39.386;-3.210;2023-07-31T08:42:19;94423.38;;;35.68;18.43
80988;BME280;70452;39.386;-3.210;2023-07-31T08:44:59;94420.31;;;35.79;18.55
80988;BME280;70452;39.386;-3.210;2023-07-31T08:47:36;94419.63;;;35.91;17.88
80988;BME280;70452;39.386;-3.210;2023-07-31T08:50:21;94416.25;;;35.80;18.33
80988;BME280;70452;39.386;-3.210;2023-07-31T08:52:58;94425.88;;;36.15;17.83
80988;BME280;70452;39.386;-3.210;2023-07-31T08:55:39;94425.72;;;36.06;17.84
80988;BME280;70452;39.386;-3.210;2023-07-31T08:58:20;94422.97;;;36.19;17.52
80988;BME280;70452;39.386;-3.210;2023-07-31T09:01:01;94426.91;;;36.25;17.52
80988;BME280;70452;39.386;-3.210;2023-07-31T09:03:49;94412.50;;;36.49;16.91
80988;BME280;70452;39.386;-3.210;2023-07-31T09:06:30;94422.81;;;36.10;17.17
80988;BME280;70452;39.386;-3.210;2023-07-31T09:09:09;94414.13;;;36.33;17.00
80988;BME280;70452;39.386;-3.210;2023-07-31T09:11:55;94416.44;;;36.22;16.93
80988;BME280;70452;39.386;-3.210;2023-07-31T09:14:29;94407.06;;;36.54;16.79
80988;BME280;70452;39.386;-3.210;2023-07-31T09:17:03;94412.09;;;36.79;16.59
80988;BME280;70452;39.386;-3.210;2023-07-31T09:19:38;94406.81;;;37.07;16.09
80988;BME280;70452;39.386;-3.210;2023-07-31T09:22:13;94407.94;;;36.68;17.41
80988;BME280;70452;39.386;-3.210;2023-07-31T09:24:45;94403.66;;;36.30;17.66
80988;BME280;70452;39.386;-3.210;2023-07-31T09:27:20;94391.78;;;36.65;17.69
80988;BME280;70452;39.386;-3.210;2023-07-31T09:30:14;94397.47;;;36.94;17.28
80988;BME280;70452;39.386;-3.210;2023-07-31T09:33:04;94394.19;;;36.95;17.00
80988;BME280;70452;39.386;-3.210;2023-07-31T09:35:35;94394.75;;;37.03;16.61
80988;BME280;70452;39.386;-3.210;2023-07-31T09:38:23;94394.97;;;36.96;16.58
80988;BME280;70452;39.386;-3.210;2023-07-31T09:40:53;94395.91;;;37.06;16.35
80988;BME280;70452;39.386;-3.210;2023-07-31T09:43:22;94397.56;;;37.20;16.46
80988;BME280;70452;39.386;-3.210;2023-07-31T09:46:04;94398.56;;;36.71;16.53
80988;BME280;70452;39.386;-3.210;2023-07-31T09:48:41;94392.34;;;36.89;16.08
80988;BME280;70452;39.386;-3.210;2023-07-31T09:51:16;94390.50;;;36.82;16.28
80988;BME280;70452;39.386;-3.210;2023-07-31T09:53:53;94387.66;;;36.69;16.49
80988;BME280;70452;39.386;-3.210;2023-07-31T09:56:29;94386.16;;;37.07;16.13
80988;BME280;70452;39.386;-3.210;2023-07-31T10:02:05;94386.25;;;37.03;15.35
80988;BME280;70452;39.386;-3.210;2023-07-31T10:04:37;94380.13;;;37.05;15.51
80988;BME280;70452;39.386;-3.210;2023-07-31T10:07:08;94379.00;;;37.15;15.20
80988;BME280;70452;39.386;-3.210;2023-07-31T10:09:51;94381.44;;;37.29;15.32
80988;BME280;70452;39.386;-3.210;2023-07-31T10:12:23;94380.75;;;37.51;14.73
80988;BME280;70452;39.386;-3.210;2023-07-31T10:15:03;94385.22;;;37.52;14.77
80988;BME280;70452;39.386;-3.210;2023-07-31T10:17:50;94384.41;;;37.64;14.15
80988;BME280;70452;39.386;-3.210;2023-07-31T10:20:22;94379.44;;;37.81;13.96
80988;BME280;70452;39.386;-3.210;2023-07-31T10:23:09;94375.91;;;37.51;14.12
80988;BME280;70452;39.386;-3.210;2023-07-31T10:25:39;94379.41;;;37.56;14.64
80988;BME280;70452;39.386;-3.210;2023-07-31T10:28:19;94369.72;;;37.53;14.40
80988;BME280;70452;39.386;-3.210;2023-07-31T10:33:47;94360.47;;;37.65;14.16
80988;BME280;70452;39.386;-3.210;2023-07-31T10:36:23;94363.16;;;37.56;14.21
80988;BME280;70452;39.386;-3.210;2023-07-31T10:39:06;94366.09;;;37.52;14.40
80988;BME280;70452;39.386;-3.210;2023-07-31T10:41:56;94370.75;;;37.33;14.11
80988;BME280;70452;39.386;-3.210;2023-07-31T10:44:36;94367.72;;;37.66;14.12
80988;BME280;70452;39.386;-3.210;2023-07-31T10:47:20;94359.41;;;37.46;14.67
80988;BME280;70452;39.386;-3.210;2023-07-31T10:49:55;94368.16;;;37.52;14.15
80988;BME280;70452;39.386;-3.210;2023-07-31T10:52:51;94367.16;;;37.71;14.32
80988;BME280;70452;39.386;-3.210;2023-07-31T10:58:18;94366.00;;;37.82;14.14
80988;BME280;70452;39.386;-3.210;2023-07-31T11:06:14;94353.84;;;37.81;13.86
80988;BME280;70452;39.386;-3.210;2023-07-31T11:08:55;94356.56;;;37.85;13.65
80988;BME280;70452;39.386;-3.210;2023-07-31T11:11:35;94350.09;;;37.71;14.07
80988;BME280;70452;39.386;-3.210;2023-07-31T11:14:13;94358.16;;;37.86;13.64
80988;BME280;70452;39.386;-3.210;2023-07-31T11:16:55;94351.38;;;37.70;14.05
80988;BME280;70452;39.386;-3.210;2023-07-31T11:20:00;94343.53;;;38.09;13.96
80988;BME280;70452;39.386;-3.210;2023-07-31T11:22:35;94342.78;;;37.96;13.93
80988;BME280;70452;39.386;-3.210;2023-07-31T11:25:14;94334.59;;;37.98;14.00
80988;BME280;70452;39.386;-3.210;2023-07-31T11:27:54;94331.66;;;37.89;13.80
80988;BME280;70452;39.386;-3.210;2023-07-31T11:30:27;94342.03;;;37.83;13.85
80988;BME280;70452;39.386;-3.210;2023-07-31T11:33:05;94332.47;;;37.77;14.45
80988;BME280;70452;39.386;-3.210;2023-07-31T11:35:50;94320.63;;;37.91;14.29
80988;BME280;70452;39.386;-3.210;2023-07-31T11:38:33;94326.72;;;38.02;14.13
80988;BME280;70452;39.386;-3.210;2023-07-31T11:41:04;94316.97;;;38.03;14.33
80988;BME280;70452;39.386;-3.210;2023-07-31T11:43:36;94320.13;;;38.05;14.34
80988;BME280;70452;39.386;-3.210;2023-07-31T11:49:10;94309.66;;;38.02;14.24
80988;BME280;70452;39.386;-3.210;2023-07-31T11:51:57;94315.09;;;38.09;14.09
80988;BME280;70452;39.386;-3.210;2023-07-31T11:54:34;94314.22;;;38.13;14.10
80988;BME280;70452;39.386;-3.210;2023-07-31T11:57:12;94310.84;;;38.27;13.61
80988;BME280;70452;39.386;-3.210;2023-07-31T11:59:55;94300.09;;;38.09;14.06
80988;BME280;70452;39.386;-3.210;2023-07-31T12:02:30;94295.31;;;38.19;13.96
80988;BME280;70452;39.386;-3.210;2023-07-31T12:07:52;94282.91;;;38.25;13.86
80988;BME280;70452;39.386;-3.210;2023-07-31T12:10:34;94279.03;;;38.19;13.71
80988;BME280;70452;39.386;-3.210;2023-07-31T12:13:05;94286.59;;;38.35;13.65
80988;BME280;70452;39.386;-3.210;2023-07-31T12:15:53;94278.72;;;38.04;13.20
80988;BME280;70452;39.386;-3.210;2023-07-31T12:18:32;94280.25;;;38.31;13.16
80988;BME280;70452;39.386;-3.210;2023-07-31T12:21:11;94274.47;;;38.22;13.78
80988;BME280;70452;39.386;-3.210;2023-07-31T12:23:51;94277.00;;;38.20;13.57
80988;BME280;70452;39.386;-3.210;2023-07-31T12:26:37;94269.59;;;38.44;12.92
80988;BME280;70452;39.386;-3.210;2023-07-31T12:29:10;94258.72;;;38.65;12.98
80988;BME280;70452;39.386;-3.210;2023-07-31T12:31:49;94267.72;;;38.63;12.74
80988;BME280;70452;39.386;-3.210;2023-07-31T12:34:23;94261.44;;;38.78;12.38
80988;BME280;70452;39.386;-3.210;2023-07-31T12:36:58;94259.63;;;38.62;12.06
80988;BME280;70452;39.386;-3.210;2023-07-31T12:39:34;94253.50;;;38.28;12.63
80988;BME280;70452;39.386;-3.210;2023-07-31T12:42:17;94262.50;;;38.49;12.35
80988;BME280;70452;39.386;-3.210;2023-07-31T12:44:47;94255.91;;;38.52;12.90
80988;BME280;70452;39.386;-3.210;2023-07-31T12:47:26;94256.81;;;38.49;12.65
80988;BME280;70452;39.386;-3.210;2023-07-31T12:50:05;94245.97;;;38.57;12.70
80988;BME280;70452;39.386;-3.210;2023-07-31T12:52:42;94239.09;;;38.67;11.98
80988;BME280;70452;39.386;-3.210;2023-07-31T12:55:17;94244.34;;;38.69;11.83
80988;BME280;70452;39.386;-3.210;2023-07-31T12:57:53;94230.84;;;38.60;11.43
80988;BME280;70452;39.386;-3.210;2023-07-31T13:00:31;94220.13;;;38.64;11.09
80988;BME280;70452;39.386;-3.210;2023-07-31T13:03:13;94235.19;;;38.74;10.78
80988;BME280;70452;39.386;-3.210;2023-07-31T13:05:45;94222.63;;;38.62;10.89
80988;BME280;70452;39.386;-3.210;2023-07-31T13:08:22;94219.75;;;38.84;10.38
80988;BME280;70452;39.386;-3.210;2023-07-31T13:10:56;94222.03;;;38.98;9.73
80988;BME280;70452;39.386;-3.210;2023-07-31T13:13:31;94217.44;;;39.42;9.64
80988;BME280;70452;39.386;-3.210;2023-07-31T13:16:10;94213.91;;;40.15;9.47
80988;BME280;70452;39.386;-3.210;2023-07-31T13:18:48;94213.13;;;40.24;9.25
80988;BME280;70452;39.386;-3.210;2023-07-31T13:21:19;94209.97;;;40.03;9.78
80988;BME280;70452;39.386;-3.210;2023-07-31T13:24:18;94212.16;;;40.27;9.66
80988;BME280;70452;39.386;-3.210;2023-07-31T13:26:49;94202.50;;;40.15;9.32
80988;BME280;70452;39.386;-3.210;2023-07-31T13:29:24;94204.06;;;39.88;9.66
80988;BME280;70452;39.386;-3.210;2023-07-31T13:32:01;94200.72;;;39.62;9.94
80988;BME280;70452;39.386;-3.210;2023-07-31T13:34:38;94196.75;;;39.50;9.86
80988;BME280;70452;39.386;-3.210;2023-07-31T13:37:04;94197.25;;;39.76;9.75
80988;BME280;70452;39.386;-3.210;2023-07-31T13:39:36;94186.78;;;39.64;10.08
80988;BME280;70452;39.386;-3.210;2023-07-31T13:42:22;94188.50;;;39.52;9.51
80988;BME280;70452;39.386;-3.210;2023-07-31T13:44:54;94183.47;;;39.56;9.76
80988;BME280;70452;39.386;-3.210;2023-07-31T13:47:27;94172.56;;;39.83;9.85
80988;BME280;70452;39.386;-3.210;2023-07-31T13:50:03;94176.38;;;39.89;9.39
80988;BME280;70452;39.386;-3.210;2023-07-31T13:52:37;94166.69;;;39.77;9.67
80988;BME280;70452;39.386;-3.210;2023-07-31T13:55:06;94183.28;;;39.51;9.33
80988;BME280;70452;39.386;-3.210;2023-07-31T13:57:49;94178.09;;;39.49;9.38
80988;BME280;70452;39.386;-3.210;2023-07-31T14:00:21;94162.59;;;39.60;8.66
80988;BME280;70452;39.386;-3.210;2023-07-31T14:03:08;94165.69;;;39.43;8.96
80988;BME280;70452;39.386;-3.210;2023-07-31T14:05:51;94145.28;;;39.54;9.52
80988;BME280;70452;39.386;-3.210;2023-07-31T14:08:20;94154.81;;;39.60;9.21
80988;BME280;70452;39.386;-3.210;2023-07-31T14:11:04;94150.50;;;39.46;9.71
80988;BME280;70452;39.386;-3.210;2023-07-31T14:13:40;94142.78;;;39.65;9.23
80988;BME280;70452;39.386;-3.210;2023-07-31T14:16:30;94134.06;;;39.69;9.01
80988;BME280;70452;39.386;-3.210;2023-07-31T14:19:23;94143.88;;;39.86;8.83
80988;BME280;70452;39.386;-3.210;2023-07-31T14:21:58;94136.75;;;39.82;9.11
80988;BME280;70452;39.386;-3.210;2023-07-31T14:24:31;94131.69;;;39.76;9.03
80988;BME280;70452;39.386;-3.210;2023-07-31T14:27:00;94138.50;;;39.88;8.57
80988;BME280;70452;39.386;-3.210;2023-07-31T14:29:43;94123.63;;;39.75;8.32
80988;BME280;70452;39.386;-3.210;2023-07-31T14:32:17;94123.63;;;39.66;8.55
80988;BME280;70452;39.386;-3.210;2023-07-31T14:34:52;94127.56;;;39.78;8.40
80988;BME280;70452;39.386;-3.210;2023-07-31T14:40:21;94119.97;;;39.65;8.52
80988;BME280;70452;39.386;-3.210;2023-07-31T14:43:20;94125.84;;;39.80;8.45
80988;BME280;70452;39.386;-3.210;2023-07-31T14:45:56;94114.44;;;39.80;8.61
80988;BME280;70452;39.386;-3.210;2023-07-31T14:48:28;94119.19;;;39.92;7.85